createdAt,value
2018-07-19T00:01:08.870Z,81.30
2018-07-19T00:06:12.131Z,81.30
2018-07-19T00:11:15.318Z,81.40
2018-07-19T00:16:18.538Z,81.20
2018-07-19T00:21:21.762Z,82.10
2018-07-19T00:26:24.967Z,81.70
2018-07-19T00:31:28.241Z,82.10
2018-07-19T00:36:31.469Z,82.80
2018-07-19T00:41:34.700Z,82.80
2018-07-19T00:46:38.134Z,82.90
2018-07-19T00:51:41.369Z,83.20
2018-07-19T00:56:44.563Z,83.00
2018-07-19T01:01:47.749Z,82.70
2018-07-19T01:06:50.989Z,83.70
2018-07-19T01:11:54.206Z,83.80
2018-07-19T01:16:57.409Z,83.20
2018-07-19T01:27:03.615Z,84.80
2018-07-19T01:32:06.901Z,84.90
2018-07-19T01:37:10.163Z,85.10
2018-07-19T01:42:29.019Z,85.00
2018-07-19T01:47:32.209Z,84.10
2018-07-19T01:52:35.393Z,83.90
2018-07-19T01:57:38.589Z,85.80
2018-07-19T02:02:41.790Z,85.60
2018-07-19T02:07:44.985Z,85.30
2018-07-19T02:12:48.178Z,85.30
2018-07-19T02:17:51.361Z,86.10
2018-07-19T02:22:54.569Z,86.00
2018-07-19T02:27:57.774Z,86.60
2018-07-19T02:33:00.974Z,86.90
2018-07-19T02:38:04.258Z,87.40
2018-07-19T02:43:07.463Z,87.90
2018-07-19T02:48:10.657Z,88.40
2018-07-19T02:53:13.920Z,88.40
2018-07-19T02:58:17.077Z,88.50
2018-07-19T03:03:20.254Z,88.50
2018-07-19T03:08:23.431Z,89.10
2018-07-19T03:13:27.618Z,89.20
2018-07-19T03:18:30.774Z,89.70
2018-07-19T03:23:33.913Z,89.40
2018-07-19T03:28:37.118Z,89.70
2018-07-19T03:33:40.255Z,89.10
2018-07-19T03:38:43.406Z,89.80
2018-07-19T03:43:46.573Z,89.60
2018-07-19T03:48:49.725Z,89.60
2018-07-19T03:53:53.893Z,89.70
2018-07-19T03:58:57.078Z,90.10
2018-07-19T04:04:01.387Z,90.00
2018-07-19T04:09:06.374Z,90.10
2018-07-19T04:14:09.625Z,90.10
2018-07-19T04:19:12.837Z,90.50
2018-07-19T04:24:16.062Z,90.70
2018-07-19T04:29:20.879Z,90.70
2018-07-19T04:34:24.379Z,90.70
2018-07-19T04:39:27.641Z,90.90
2018-07-19T04:44:30.840Z,91.00
2018-07-19T04:49:34.080Z,91.00
2018-07-19T04:54:37.310Z,91.10
2018-07-19T04:59:40.438Z,91.30
2018-07-19T05:04:43.669Z,91.20
2018-07-19T05:09:46.907Z,91.40
2018-07-19T05:14:50.078Z,91.00
2018-07-19T05:19:53.233Z,91.40
2018-07-19T05:24:56.405Z,91.50
2018-07-19T05:29:59.589Z,91.20
2018-07-19T05:35:02.751Z,91.10
2018-07-19T05:40:05.910Z,90.90
2018-07-19T05:45:09.116Z,90.80
2018-07-19T05:50:12.335Z,90.50
2018-07-19T05:55:15.485Z,90.10
2018-07-19T06:00:18.689Z,89.70
2018-07-19T06:05:21.954Z,88.80
2018-07-19T06:10:25.187Z,87.60
2018-07-19T06:15:28.390Z,86.60
2018-07-19T06:20:31.621Z,87.90
2018-07-19T06:25:35.650Z,86.20
2018-07-19T06:30:38.986Z,86.00
2018-07-19T06:35:42.223Z,86.40
2018-07-19T06:40:45.453Z,84.10
2018-07-19T06:45:48.754Z,84.70
2018-07-19T06:50:52.077Z,85.10
2018-07-19T06:55:55.389Z,83.30
2018-07-19T07:00:58.637Z,82.00
2018-07-19T07:06:01.827Z,81.60
2018-07-19T07:11:05.038Z,81.70
2018-07-19T07:16:08.246Z,81.50
2018-07-19T07:21:11.933Z,80.60
2018-07-19T07:26:15.097Z,80.80
2018-07-19T07:31:18.273Z,79.10
2018-07-19T07:36:21.465Z,78.90
2018-07-19T07:41:24.675Z,79.40
2018-07-19T07:46:27.854Z,80.10
2018-07-19T07:51:31.060Z,79.40
2018-07-19T07:56:34.293Z,78.90
2018-07-19T08:01:37.534Z,78.10
2018-07-19T08:06:40.774Z,77.20
2018-07-19T08:11:43.986Z,77.50
2018-07-19T08:16:47.225Z,77.60
2018-07-19T08:21:50.475Z,75.00
2018-07-19T08:26:53.675Z,74.40
2018-07-19T08:31:56.935Z,73.70
2018-07-19T08:37:00.135Z,73.20
2018-07-19T08:42:03.344Z,73.20
2018-07-19T08:47:06.674Z,69.00
2018-07-19T08:52:09.912Z,69.10
2018-07-19T08:57:13.288Z,63.60
2018-07-19T09:02:16.456Z,63.90
2018-07-19T09:07:20.638Z,61.60
2018-07-19T09:12:23.853Z,62.20
2018-07-19T09:18:30.445Z,63.10
2018-07-19T09:23:33.744Z,62.50
2018-07-19T09:28:36.918Z,61.60
2018-07-19T09:33:40.082Z,61.80
2018-07-19T09:38:43.346Z,59.40
2018-07-19T09:43:46.536Z,60.30
2018-07-19T09:48:49.954Z,58.40
2018-07-19T09:53:53.070Z,57.50
2018-07-19T09:58:56.318Z,59.30
2018-07-19T10:03:59.569Z,58.80
2018-07-19T10:09:02.883Z,55.70
2018-07-19T10:14:06.377Z,55.50
2018-07-19T10:19:09.578Z,53.70
2018-07-19T10:24:12.787Z,54.40
2018-07-19T10:29:15.990Z,52.50
2018-07-19T10:34:19.300Z,53.20
2018-07-19T10:39:22.513Z,52.90
2018-07-19T10:44:25.842Z,56.50
2018-07-19T10:49:29.107Z,57.60
2018-07-19T10:54:32.351Z,58.00
2018-07-19T10:59:35.525Z,55.30
2018-07-19T11:04:38.706Z,54.90
2018-07-19T11:09:41.933Z,53.80
2018-07-19T11:14:45.090Z,53.50
2018-07-19T11:19:48.249Z,54.60
2018-07-19T11:24:51.626Z,55.50
2018-07-19T11:29:54.793Z,54.40
2018-07-19T11:34:57.971Z,53.50
2018-07-19T11:40:01.168Z,53.60
2018-07-19T11:45:04.622Z,56.20
2018-07-19T11:55:10.733Z,54.10
2018-07-19T12:05:17.038Z,50.90
2018-07-19T12:10:20.243Z,49.50
2018-07-19T12:15:23.505Z,49.40
2018-07-19T12:20:26.736Z,48.30
2018-07-19T12:25:29.987Z,49.90
2018-07-19T12:30:33.830Z,50.20
2018-07-19T12:35:37.046Z,49.10
2018-07-19T12:40:40.289Z,49.60
2018-07-19T12:45:43.512Z,48.80
2018-07-19T12:50:46.749Z,46.10
2018-07-19T12:55:49.986Z,47.70
2018-07-19T13:05:56.223Z,45.60
2018-07-19T13:10:59.611Z,47.10
2018-07-19T13:16:02.838Z,46.30
2018-07-19T13:21:06.103Z,44.10
2018-07-19T13:26:09.371Z,45.70
2018-07-19T13:31:12.632Z,44.20
2018-07-19T13:36:15.787Z,43.50
2018-07-19T13:41:19.272Z,43.90
2018-07-19T13:46:22.448Z,44.10
2018-07-19T13:51:25.648Z,43.80
2018-07-19T13:56:28.834Z,42.70
2018-07-19T14:01:32.006Z,44.70
2018-07-19T14:06:35.198Z,44.20
2018-07-19T14:11:38.467Z,43.60
2018-07-19T14:16:41.624Z,44.50
2018-07-19T14:21:44.781Z,43.40
2018-07-19T14:26:47.935Z,44.60
2018-07-19T14:31:51.161Z,45.40
2018-07-19T14:36:54.305Z,45.70
2018-07-19T14:41:57.557Z,45.60
2018-07-19T14:47:00.670Z,44.10
2018-07-19T14:52:04.478Z,45.10
2018-07-19T14:57:07.633Z,44.20
2018-07-19T15:02:10.822Z,45.80
2018-07-19T15:07:14.019Z,45.00
2018-07-19T15:12:17.249Z,45.40
2018-07-19T15:17:20.554Z,45.10
2018-07-19T15:22:23.902Z,45.80
2018-07-19T15:27:27.138Z,45.30
2018-07-19T15:32:30.393Z,46.40
2018-07-19T15:37:33.662Z,46.30
2018-07-19T15:42:36.927Z,47.10
2018-07-19T15:47:40.133Z,47.70
2018-07-19T15:52:43.339Z,46.90
2018-07-19T15:57:46.538Z,45.60
2018-07-19T16:02:49.829Z,47.00
2018-07-19T16:07:53.059Z,46.90
2018-07-19T16:12:56.286Z,47.90
2018-07-19T16:17:59.541Z,47.20
2018-07-19T16:23:02.887Z,46.60
2018-07-19T16:28:06.133Z,46.70
2018-07-19T16:33:09.435Z,45.40
2018-07-19T16:38:12.669Z,45.30
2018-07-19T16:43:15.987Z,46.10
2018-07-19T16:48:19.202Z,46.60
2018-07-19T16:53:22.486Z,46.80
2018-07-19T16:58:25.723Z,45.90
2018-07-19T17:03:28.892Z,47.50
2018-07-19T17:08:32.112Z,48.10
2018-07-19T17:13:35.322Z,48.00
2018-07-19T17:18:38.634Z,48.30
2018-07-19T17:28:44.874Z,47.20
2018-07-19T17:33:48.094Z,48.00
2018-07-19T17:38:51.330Z,49.00
2018-07-19T17:43:54.509Z,49.90
2018-07-19T17:48:57.730Z,47.00
2018-07-19T17:54:00.927Z,48.40
2018-07-19T17:59:04.103Z,47.80
2018-07-19T18:04:07.270Z,48.50
2018-07-19T18:09:11.418Z,50.40
2018-07-19T18:14:14.593Z,50.40
2018-07-19T18:19:17.742Z,52.20
2018-07-19T18:24:20.895Z,52.30
2018-07-19T18:29:24.102Z,53.70
2018-07-19T18:34:27.821Z,54.40
2018-07-19T18:39:31.023Z,55.50
2018-07-19T18:44:34.230Z,55.90
2018-07-19T18:49:37.406Z,55.50
2018-07-19T18:54:40.608Z,55.50
2018-07-19T18:59:43.850Z,56.70
2018-07-19T19:04:47.406Z,57.90
2018-07-19T19:09:50.612Z,58.20
2018-07-19T19:14:53.861Z,57.80
2018-07-19T19:19:57.072Z,56.50
2018-07-19T19:25:00.243Z,57.00
2018-07-19T19:30:03.410Z,56.70
2018-07-19T19:35:06.662Z,56.80
2018-07-19T19:40:09.923Z,58.00
2018-07-19T19:45:13.090Z,59.70
2018-07-19T19:50:16.305Z,59.20
2018-07-19T19:55:19.467Z,58.50
2018-07-19T20:00:22.677Z,59.20
2018-07-19T20:05:25.950Z,60.90
2018-07-19T20:10:29.162Z,61.00
2018-07-19T20:15:32.446Z,62.40
2018-07-19T20:20:35.698Z,64.70
2018-07-19T20:25:38.966Z,63.70
2018-07-19T20:30:42.227Z,64.10
2018-07-19T20:35:45.458Z,63.70
2018-07-19T20:40:48.657Z,66.50
2018-07-19T20:45:51.865Z,67.10
2018-07-19T20:50:55.089Z,66.70
2018-07-19T20:55:58.277Z,66.70
2018-07-19T21:01:01.454Z,68.00
2018-07-19T21:06:04.629Z,67.40
2018-07-19T21:11:07.799Z,69.10
2018-07-19T21:16:11.019Z,71.20
2018-07-19T21:21:14.802Z,68.70
2018-07-19T21:26:18.009Z,69.00
2018-07-19T21:31:21.254Z,68.20
2018-07-19T21:36:30.921Z,67.70
2018-07-19T21:41:34.105Z,68.70
2018-07-19T21:46:37.277Z,68.20
2018-07-19T21:51:40.465Z,68.20
2018-07-19T21:56:43.786Z,69.60
2018-07-19T22:01:47.093Z,70.30
2018-07-19T22:06:50.893Z,70.60
2018-07-19T22:11:54.126Z,72.10
2018-07-19T22:16:57.391Z,72.40
2018-07-19T22:22:03.431Z,72.90
2018-07-19T22:27:06.804Z,74.40
2018-07-19T22:32:10.089Z,75.10
2018-07-19T22:37:13.290Z,76.50
2018-07-19T22:42:16.509Z,77.00
2018-07-19T22:47:20.813Z,77.30
2018-07-19T22:52:24.020Z,75.60
2018-07-19T22:57:27.234Z,75.60
2018-07-19T23:02:30.443Z,77.10
2018-07-19T23:07:33.666Z,77.20
2018-07-19T23:12:36.968Z,78.70
2018-07-19T23:17:40.287Z,77.90
2018-07-19T23:22:52.857Z,79.50
2018-07-19T23:27:57.290Z,79.30
2018-07-19T23:33:00.522Z,80.40
2018-07-19T23:38:06.643Z,80.40
2018-07-19T23:43:16.034Z,80.00
2018-07-19T23:48:19.242Z,80.50
2018-07-19T23:53:22.542Z,80.50
2018-07-19T23:58:25.741Z,80.50
